Time;durP1;ratioP1;P1;durP2;ratioP2;P2;SDS_P1;SDS_P2;PMS_P1;PMS_P2;Temp;Humidity;BMP_temperature;BMP_pressure;BME280_temperature;BME280_humidity;BME280_pressure;Samples;Min_cycle;Max_cycle;Signal;HPM_P1;HPM_P2
2021/08/31 00:01:10;;;;;;;31.23;18.98;;;15.50;99.90;;;;;;5033380;28;25074;-71
2021/08/31 00:03:36;;;;;;;40.22;20.90;;;15.60;99.90;;;;;;5020857;28;25121;-72
2021/08/31 00:06:01;;;;;;;37.40;21.25;;;15.60;99.90;;;;;;5018240;28;25082;-72
2021/08/31 00:08:27;;;;;;;36.78;22.67;;;15.50;99.90;;;;;;5017215;28;25075;-75
2021/08/31 00:10:53;;;;;;;42.30;22.98;;;15.50;99.90;;;;;;5013959;28;25058;-72
2021/08/31 00:13:18;;;;;;;38.13;21.10;;;15.50;99.90;;;;;;5012437;28;25081;-74
2021/08/31 00:15:44;;;;;;;44.38;25.73;;;15.50;99.90;;;;;;5013563;28;25071;-73
2021/08/31 00:18:09;;;;;;;40.97;23.05;;;15.40;99.90;;;;;;5012267;28;25072;-72
2021/08/31 00:20:35;;;;;;;38.67;22.20;;;15.40;99.90;;;;;;5009463;28;25065;-70
2021/08/31 00:23:00;;;;;;;36.15;20.98;;;15.40;99.90;;;;;;5012899;28;25076;-74
2021/08/31 00:25:26;;;;;;;40.47;24.75;;;15.40;99.90;;;;;;5013152;28;25079;-71
2021/08/31 00:27:52;;;;;;;38.70;21.73;;;15.40;99.90;;;;;;5013899;28;25114;-72
2021/08/31 00:30:17;;;;;;;51.08;24.27;;;15.40;99.90;;;;;;5011151;28;25071;-71
2021/08/31 00:32:44;;;;;;;49.10;24.60;;;15.30;99.90;;;;;;5012904;28;25101;-70
2021/08/31 00:35:10;;;;;;;47.45;24.38;;;15.30;99.90;;;;;;5013081;28;25152;-72
2021/08/31 00:37:36;;;;;;;38.33;22.73;;;15.30;99.90;;;;;;5012980;28;25083;-72
2021/08/31 00:40:02;;;;;;;42.42;24.73;;;15.40;99.90;;;;;;5009113;28;25125;-72
2021/08/31 00:42:29;;;;;;;35.05;22.65;;;15.30;99.90;;;;;;5012606;28;25050;-73
2021/08/31 00:44:55;;;;;;;35.38;23.70;;;15.20;99.90;;;;;;5012044;28;25176;-72
2021/08/31 00:47:20;;;;;;;40.47;24.98;;;15.20;99.90;;;;;;5012481;28;25085;-73
2021/08/31 00:49:47;;;;;;;45.50;25.30;;;15.20;99.90;;;;;;5008306;28;25142;-73
2021/08/31 00:52:13;;;;;;;47.65;26.13;;;15.10;99.90;;;;;;5009926;28;25066;-72
2021/08/31 00:54:40;;;;;;;43.85;25.98;;;15.10;99.90;;;;;;5010964;28;25090;-73
2021/08/31 00:57:05;;;;;;;46.75;24.73;;;15.00;99.90;;;;;;5003548;28;25144;-72
2021/08/31 00:59:32;;;;;;;45.90;25.77;;;15.00;99.90;;;;;;5012621;28;25077;-72
2021/08/31 01:02:01;;;;;;;36.28;23.65;;;15.00;99.90;;;;;;5012554;28;25053;-71
2021/08/31 01:04:29;;;;;;;41.58;24.13;;;15.00;99.90;;;;;;5013723;28;25058;-73
2021/08/31 01:06:55;;;;;;;41.90;25.58;;;15.00;99.90;;;;;;5010989;28;25145;-72
2021/08/31 01:09:21;;;;;;;42.72;24.27;;;15.00;99.90;;;;;;5011631;28;25138;-71
2021/08/31 01:11:50;;;;;;;44.53;24.73;;;15.00;99.90;;;;;;5012652;28;25118;-71
2021/08/31 01:14:17;;;;;;;38.97;24.55;;;15.00;99.90;;;;;;5013029;28;25134;-71
2021/08/31 01:16:43;;;;;;;49.03;26.77;;;15.00;99.90;;;;;;5006996;28;25161;-71
2021/08/31 01:19:10;;;;;;;38.92;23.73;;;15.00;99.90;;;;;;5011615;28;25055;-70
2021/08/31 01:21:36;;;;;;;40.22;23.30;;;15.00;99.90;;;;;;5010584;28;25074;-73
2021/08/31 01:24:02;;;;;;;45.83;25.00;;;15.00;99.90;;;;;;5012100;28;25076;-72
2021/08/31 01:26:28;;;;;;;49.83;24.15;;;14.90;99.90;;;;;;5011914;28;25073;-72
2021/08/31 01:28:54;;;;;;;47.17;27.20;;;14.90;99.90;;;;;;5011823;28;25160;-72
2021/08/31 01:31:20;;;;;;;41.20;24.38;;;14.90;99.90;;;;;;5012003;28;25143;-72
2021/08/31 01:33:46;;;;;;;40.60;23.83;;;14.80;99.90;;;;;;5006642;28;25126;-70
2021/08/31 01:36:21;;;;;;;46.15;24.70;;;14.80;99.90;;;;;;5011109;28;25080;-70
2021/08/31 01:38:52;;;;;;;44.75;26.90;;;14.90;99.90;;;;;;5011502;28;25061;-71
2021/08/31 01:41:18;;;;;;;49.38;26.30;;;14.90;99.90;;;;;;5010553;28;25065;-72
2021/08/31 01:43:45;;;;;;;47.38;26.38;;;14.80;99.90;;;;;;5010452;28;25064;-71
2021/08/31 01:46:10;;;;;;;44.95;26.33;;;14.80;99.90;;;;;;5010095;28;25077;-71
2021/08/31 01:48:37;;;;;;;43.63;27.10;;;14.80;99.90;;;;;;5008749;28;25100;-70
2021/08/31 01:51:05;;;;;;;39.03;25.83;;;14.80;99.90;;;;;;5008942;28;25075;-70
2021/08/31 01:53:31;;;;;;;46.97;24.88;;;14.80;99.90;;;;;;5009007;28;25108;-70
2021/08/31 01:55:56;;;;;;;40.65;24.67;;;14.80;99.90;;;;;;5011211;28;25173;-72
2021/08/31 01:58:22;;;;;;;44.53;25.38;;;14.80;99.90;;;;;;5008863;28;25115;-72
2021/08/31 02:00:47;;;;;;;44.53;28.17;;;14.80;99.90;;;;;;5011085;28;25124;-71
2021/08/31 02:03:13;;;;;;;47.22;28.50;;;14.80;99.90;;;;;;5009715;28;25083;-73
2021/08/31 02:05:39;;;;;;;41.90;26.77;;;14.80;99.90;;;;;;5009323;28;25051;-72
2021/08/31 02:08:05;;;;;;;45.90;24.38;;;14.80;99.90;;;;;;5010018;28;25064;-71
2021/08/31 02:10:31;;;;;;;43.25;25.23;;;14.80;99.90;;;;;;5009849;28;25051;-72
2021/08/31 02:12:56;;;;;;;40.58;26.35;;;14.80;99.90;;;;;;5010639;28;25066;-72
2021/08/31 02:15:22;;;;;;;42.75;25.75;;;14.70;99.90;;;;;;5009892;28;25073;-70
2021/08/31 02:17:48;;;;;;;47.95;28.13;;;14.70;99.90;;;;;;5009360;28;25071;-71
2021/08/31 02:20:14;;;;;;;47.10;27.60;;;14.80;99.90;;;;;;5009327;28;25167;-72
2021/08/31 02:22:40;;;;;;;50.10;26.92;;;14.80;99.90;;;;;;5010675;28;25070;-72
2021/08/31 02:25:06;;;;;;;37.65;22.73;;;14.80;99.90;;;;;;5010061;28;25150;-71
2021/08/31 02:27:32;;;;;;;46.17;25.48;;;14.80;99.90;;;;;;5009079;28;25126;-71
2021/08/31 02:29:57;;;;;;;39.95;25.25;;;14.90;99.90;;;;;;5009697;28;25079;-71
2021/08/31 02:32:23;;;;;;;42.05;25.42;;;14.90;99.90;;;;;;5009590;28;25139;-71
2021/08/31 02:34:49;;;;;;;45.15;28.05;;;14.80;99.90;;;;;;5009722;28;25144;-72
2021/08/31 02:37:14;;;;;;;50.92;27.85;;;14.80;99.90;;;;;;5010795;28;25156;-72
2021/08/31 02:39:40;;;;;;;45.03;27.05;;;14.70;99.90;;;;;;4994651;28;25078;-72
2021/08/31 02:42:06;;;;;;;44.70;27.73;;;14.70;99.90;;;;;;5009317;28;25137;-72
2021/08/31 02:44:32;;;;;;;39.30;22.85;;;14.70;99.90;;;;;;5009251;28;25070;-72
2021/08/31 02:46:57;;;;;;;47.65;26.30;;;14.80;99.90;;;;;;5009796;28;25101;-73
2021/08/31 02:49:23;;;;;;;47.80;27.98;;;14.70;99.90;;;;;;5009735;28;25055;-72
2021/08/31 02:51:48;;;;;;;45.67;27.63;;;14.70;99.90;;;;;;5009946;28;25062;-70
2021/08/31 02:54:14;;;;;;;45.67;27.55;;;14.60;99.90;;;;;;5016454;28;25109;-72
2021/08/31 02:56:40;;;;;;;44.33;27.58;;;14.60;99.90;;;;;;5015246;28;25163;-71
2021/08/31 02:59:05;;;;;;;47.72;27.88;;;14.50;99.90;;;;;;5017708;28;25054;-73
2021/08/31 03:02:04;;;;;;;51.58;27.63;;;14.60;99.90;;;;;;5021282;28;25055;-72
2021/08/31 03:04:31;;;;;;;53.03;28.75;;;14.50;99.90;;;;;;5003381;28;25096;-73
2021/08/31 03:06:56;;;;;;;56.97;28.95;;;14.50;99.90;;;;;;5014051;28;25048;-71
2021/08/31 03:09:22;;;;;;;45.25;28.67;;;14.40;99.90;;;;;;4996429;28;25069;-70
2021/08/31 03:11:48;;;;;;;59.03;28.48;;;14.40;99.90;;;;;;5013780;28;25079;-72
2021/08/31 03:14:18;;;;;;;54.60;29.20;;;14.40;99.90;;;;;;5013662;28;25073;-71
2021/08/31 03:16:45;;;;;;;44.15;29.15;;;14.40;99.90;;;;;;5012823;28;25045;-70
2021/08/31 03:19:11;;;;;;;49.83;29.13;;;14.40;99.90;;;;;;4996818;28;25079;-70
2021/08/31 03:21:37;;;;;;;50.78;28.85;;;14.40;99.90;;;;;;5012523;28;25144;-70
2021/08/31 03:24:03;;;;;;;60.03;31.77;;;14.40;99.90;;;;;;5014707;28;25078;-71
2021/08/31 03:26:28;;;;;;;46.75;29.27;;;14.40;99.90;;;;;;5012942;28;25093;-71
2021/08/31 03:28:56;;;;;;;55.20;28.90;;;14.40;99.90;;;;;;5013506;28;25066;-71
2021/08/31 03:31:21;;;;;;;48.38;28.17;;;14.40;99.90;;;;;;5013383;28;25054;-70
2021/08/31 03:33:47;;;;;;;43.13;27.27;;;14.40;99.90;;;;;;5014094;28;25074;-71
2021/08/31 03:36:13;;;;;;;46.72;27.48;;;14.40;99.90;;;;;;5012725;28;25103;-69
2021/08/31 03:38:39;;;;;;;47.08;26.45;;;14.40;99.90;;;;;;5013586;28;25063;-72
2021/08/31 03:41:04;;;;;;;53.00;29.77;;;14.40;99.90;;;;;;5013804;28;25070;-70
2021/08/31 03:43:30;;;;;;;49.03;29.30;;;14.40;99.90;;;;;;5011694;28;25121;-72
2021/08/31 03:45:56;;;;;;;53.80;28.95;;;14.40;99.90;;;;;;5011633;28;25070;-72
2021/08/31 03:48:21;;;;;;;60.78;30.90;;;14.40;99.90;;;;;;5012671;28;25080;-70
2021/08/31 03:50:47;;;;;;;53.30;29.48;;;14.40;99.90;;;;;;5001108;28;25073;-70
2021/08/31 03:53:12;;;;;;;44.85;27.98;;;14.30;99.90;;;;;;5020250;28;25066;-72
2021/08/31 03:55:38;;;;;;;51.65;29.52;;;14.30;99.90;;;;;;5019197;28;25070;-71
2021/08/31 03:58:07;;;;;;;47.47;27.92;;;14.30;99.90;;;;;;5018970;28;25095;-71
2021/08/31 04:00:34;;;;;;;55.75;30.48;;;14.30;99.90;;;;;;5016999;28;25059;-72
2021/08/31 04:03:00;;;;;;;45.55;27.95;;;14.30;99.90;;;;;;5013093;28;25121;-72
2021/08/31 04:05:26;;;;;;;55.47;31.13;;;14.30;99.90;;;;;;5013121;28;25143;-71
2021/08/31 04:07:51;;;;;;;45.55;29.50;;;14.20;99.90;;;;;;5012404;28;25108;-71
2021/08/31 04:10:17;;;;;;;51.67;29.67;;;14.20;99.90;;;;;;5012807;28;25147;-71
2021/08/31 04:12:43;;;;;;;48.80;30.80;;;14.30;99.90;;;;;;5012626;28;25345;-74
2021/08/31 04:15:09;;;;;;;55.25;30.08;;;14.20;99.90;;;;;;5013347;28;25083;-70
2021/08/31 04:17:34;;;;;;;39.58;26.35;;;14.20;99.90;;;;;;5012547;28;25080;-73
2021/08/31 04:20:00;;;;;;;55.50;29.42;;;14.20;99.90;;;;;;4999833;28;25055;-71
2021/08/31 04:22:26;;;;;;;51.97;28.27;;;14.10;99.90;;;;;;5011655;28;25070;-70
2021/08/31 04:24:51;;;;;;;51.35;29.15;;;14.10;99.90;;;;;;5011148;28;25098;-73
2021/08/31 04:27:17;;;;;;;43.97;28.45;;;14.10;99.90;;;;;;5012810;28;25069;-71
2021/08/31 04:29:44;;;;;;;51.10;29.63;;;14.00;99.90;;;;;;5011950;28;25085;-71
2021/08/31 04:32:09;;;;;;;41.58;27.75;;;14.00;99.90;;;;;;5012116;28;25114;-72
2021/08/31 04:34:35;;;;;;;51.88;28.70;;;14.00;99.90;;;;;;5010561;28;25115;-71
2021/08/31 04:37:00;;;;;;;50.08;27.42;;;14.00;99.90;;;;;;5011191;28;25115;-73
2021/08/31 04:39:26;;;;;;;49.53;28.45;;;14.00;99.90;;;;;;5011750;28;25085;-72
2021/08/31 04:41:51;;;;;;;39.63;25.33;;;14.00;99.90;;;;;;5011480;28;25079;-72
2021/08/31 04:44:17;;;;;;;41.33;25.88;;;14.00;99.90;;;;;;5008131;28;25138;-70
2021/08/31 04:46:43;;;;;;;45.05;24.63;;;14.00;99.90;;;;;;4996504;28;25079;-71
2021/08/31 04:49:08;;;;;;;45.38;25.33;;;14.00;99.90;;;;;;5016801;28;25083;-71
2021/08/31 04:51:34;;;;;;;44.67;25.27;;;14.10;99.90;;;;;;5017944;28;25105;-71
2021/08/31 04:53:59;;;;;;;41.53;23.73;;;14.00;99.90;;;;;;5019097;28;25116;-71
2021/08/31 04:56:25;;;;;;;38.20;25.88;;;14.10;99.90;;;;;;5017216;28;25064;-71
2021/08/31 04:58:50;;;;;;;42.40;25.15;;;14.10;99.90;;;;;;5015897;28;25176;-72
2021/08/31 05:01:16;;;;;;;43.90;25.23;;;14.10;99.90;;;;;;5015935;28;25096;-70
2021/08/31 05:03:42;;;;;;;47.17;23.80;;;14.10;99.90;;;;;;5015905;28;25058;-69
2021/08/31 05:06:09;;;;;;;43.58;22.33;;;14.10;99.90;;;;;;5016166;28;25170;-68
2021/08/31 05:08:36;;;;;;;43.05;23.83;;;14.10;99.90;;;;;;5014413;28;25201;-71
2021/08/31 05:11:02;;;;;;;38.72;22.83;;;14.10;99.90;;;;;;5016803;28;25136;-69
2021/08/31 05:13:27;;;;;;;38.10;22.55;;;14.10;99.90;;;;;;5015455;28;25162;-71
2021/08/31 05:15:53;;;;;;;37.85;20.50;;;14.10;99.90;;;;;;5017147;28;25064;-71
2021/08/31 05:18:19;;;;;;;38.97;21.83;;;14.20;99.90;;;;;;5016297;28;25069;-70
2021/08/31 05:20:45;;;;;;;36.85;20.52;;;14.20;99.90;;;;;;5017154;28;25123;-70
2021/08/31 05:23:11;;;;;;;34.90;20.17;;;14.20;99.90;;;;;;5018266;28;25077;-72
2021/08/31 05:25:38;;;;;;;39.13;19.23;;;14.20;99.90;;;;;;5018106;28;25099;-70
2021/08/31 05:28:03;;;;;;;38.63;21.15;;;14.20;99.90;;;;;;5018595;28;25160;-72
2021/08/31 05:30:29;;;;;;;34.38;21.23;;;14.20;99.90;;;;;;5019303;28;25110;-71
2021/08/31 05:32:54;;;;;;;38.50;19.92;;;14.30;99.90;;;;;;5010555;28;25151;-69
2021/08/31 05:35:20;;;;;;;38.80;20.05;;;14.30;99.90;;;;;;4990354;28;25136;-73
2021/08/31 05:37:46;;;;;;;34.88;17.42;;;14.30;99.90;;;;;;5008349;28;25073;-69
2021/08/31 05:40:12;;;;;;;32.50;18.60;;;14.30;99.90;;;;;;5008488;28;25073;-70
2021/08/31 05:42:37;;;;;;;34.30;17.75;;;14.30;99.90;;;;;;5009724;28;25075;-70
2021/08/31 05:45:03;;;;;;;38.50;18.33;;;14.40;99.90;;;;;;5009674;28;25057;-71
2021/08/31 05:47:29;;;;;;;33.85;18.88;;;14.40;99.90;;;;;;5008314;28;25073;-70
2021/08/31 05:49:55;;;;;;;38.92;19.67;;;14.40;99.90;;;;;;5010696;28;25081;-70
2021/08/31 05:52:20;;;;;;;35.35;17.48;;;14.40;99.90;;;;;;5009500;28;25054;-71
2021/08/31 05:54:46;;;;;;;33.75;18.08;;;14.50;99.90;;;;;;5009354;28;25087;-70
2021/08/31 05:57:11;;;;;;;36.03;17.30;;;14.50;99.90;;;;;;5012036;28;25073;-72
2021/08/31 05:59:41;;;;;;;37.67;17.17;;;14.50;99.90;;;;;;5018774;28;25062;-73
2021/08/31 06:02:08;;;;;;;29.77;16.30;;;14.50;99.90;;;;;;5030461;28;25088;-71
2021/08/31 06:04:38;;;;;;;30.00;16.85;;;14.60;99.90;;;;;;5030030;28;25062;-72
2021/08/31 06:07:05;;;;;;;32.70;16.38;;;14.60;99.90;;;;;;5017162;28;25111;-70
2021/08/31 06:09:31;;;;;;;32.65;16.10;;;14.60;99.90;;;;;;4993607;28;25063;-69
2021/08/31 06:11:58;;;;;;;30.48;16.73;;;14.70;99.90;;;;;;5012029;28;25085;-69
2021/08/31 06:14:24;;;;;;;35.95;15.88;;;14.80;99.90;;;;;;5010137;28;25068;-71
2021/08/31 06:16:49;;;;;;;32.35;15.40;;;14.80;99.90;;;;;;5009998;28;25060;-71
2021/08/31 06:19:16;;;;;;;32.00;15.50;;;14.80;99.90;;;;;;5008614;28;24813;-71
2021/08/31 06:21:42;;;;;;;28.63;13.25;;;14.90;99.90;;;;;;5006341;28;25059;-71
2021/08/31 06:24:08;;;;;;;21.95;12.05;;;15.00;99.90;;;;;;5008152;28;25070;-72
2021/08/31 06:26:33;;;;;;;29.00;12.50;;;15.00;99.90;;;;;;5007816;28;25058;-69
2021/08/31 06:28:59;;;;;;;34.10;12.90;;;15.00;99.90;;;;;;5010523;28;25064;-71
2021/08/31 06:31:24;;;;;;;26.38;12.25;;;15.20;99.90;;;;;;5010836;28;25077;-70
2021/08/31 06:33:50;;;;;;;20.92;10.63;;;15.20;99.90;;;;;;5010566;28;25143;-69
2021/08/31 06:36:16;;;;;;;31.48;13.48;;;15.20;99.90;;;;;;5011575;28;25178;-70
2021/08/31 06:38:41;;;;;;;32.85;12.48;;;15.30;99.90;;;;;;5011324;28;25088;-73
2021/08/31 06:41:08;;;;;;;33.05;12.43;;;15.40;99.90;;;;;;5011600;28;25078;-71
2021/08/31 06:43:34;;;;;;;30.33;12.65;;;15.40;99.90;;;;;;5011465;28;25056;-71
2021/08/31 06:46:00;;;;;;;28.48;12.52;;;15.40;99.90;;;;;;5011806;28;25051;-71
2021/08/31 06:48:25;;;;;;;26.90;12.38;;;15.40;99.90;;;;;;5011236;28;25379;-70
2021/08/31 06:50:51;;;;;;;24.77;13.35;;;15.40;99.90;;;;;;5011688;28;25129;-71
2021/08/31 06:53:16;;;;;;;23.95;11.30;;;15.40;99.90;;;;;;4993955;28;25046;-72
2021/08/31 06:55:44;;;;;;;28.08;12.02;;;15.50;99.90;;;;;;5010949;28;25079;-72
2021/08/31 06:58:09;;;;;;;30.25;12.88;;;15.60;99.90;;;;;;5011311;28;25067;-70
2021/08/31 07:00:35;;;;;;;26.75;11.35;;;15.60;99.90;;;;;;5011138;28;25052;-71
2021/08/31 07:03:01;;;;;;;24.33;11.85;;;15.70;99.90;;;;;;5011071;28;26163;-72
2021/08/31 07:05:27;;;;;;;23.80;10.57;;;15.70;99.90;;;;;;5012088;28;25074;-72
2021/08/31 07:07:53;;;;;;;24.23;11.63;;;15.70;99.90;;;;;;5010402;28;25150;-71
2021/08/31 07:10:19;;;;;;;25.38;12.48;;;15.70;99.90;;;;;;4993685;28;25116;-72
2021/08/31 07:12:44;;;;;;;29.83;11.70;;;15.80;99.90;;;;;;5011455;28;25089;-71
2021/08/31 07:15:11;;;;;;;21.95;10.60;;;15.80;99.90;;;;;;5012302;28;25150;-71
2021/08/31 07:17:36;;;;;;;25.33;11.35;;;15.90;99.90;;;;;;5011817;28;25148;-72
2021/08/31 07:20:04;;;;;;;30.67;11.38;;;16.00;99.90;;;;;;5012495;28;25056;-71
2021/08/31 07:22:29;;;;;;;30.35;10.20;;;16.10;99.90;;;;;;4992876;28;25108;-73
2021/08/31 07:24:55;;;;;;;24.25;11.20;;;16.10;99.90;;;;;;5011424;28;25094;-72
2021/08/31 07:27:21;;;;;;;34.55;10.75;;;16.20;99.90;;;;;;5011545;28;25082;-73
2021/08/31 07:29:47;;;;;;;29.73;11.55;;;16.20;99.90;;;;;;5011610;28;25072;-72
2021/08/31 07:32:14;;;;;;;25.50;10.23;;;16.30;99.90;;;;;;4994968;28;25070;-71
2021/08/31 07:34:39;;;;;;;23.60;9.77;;;16.40;99.90;;;;;;5011618;28;25060;-73
2021/08/31 07:37:06;;;;;;;29.02;11.13;;;16.50;99.90;;;;;;5014860;28;25110;-70
2021/08/31 07:39:32;;;;;;;31.05;9.85;;;16.50;99.90;;;;;;5016382;28;25080;-73
2021/08/31 07:41:58;;;;;;;27.80;9.90;;;16.60;99.90;;;;;;5018390;28;25117;-72
2021/08/31 07:44:25;;;;;;;27.40;9.98;;;16.60;99.90;;;;;;5018190;28;25134;-71
2021/08/31 07:46:51;;;;;;;19.98;9.05;;;16.60;99.90;;;;;;5018463;28;25103;-71
2021/08/31 07:49:19;;;;;;;25.85;9.88;;;16.70;99.90;;;;;;5017849;28;25117;-72
2021/08/31 07:51:46;;;;;;;32.08;10.75;;;16.60;99.90;;;;;;5017848;28;25094;-72
2021/08/31 07:54:13;;;;;;;30.67;10.88;;;16.50;99.90;;;;;;4999564;28;25093;-72
2021/08/31 07:56:40;;;;;;;22.13;9.15;;;16.50;99.90;;;;;;4998742;28;25109;-74
2021/08/31 07:59:06;;;;;;;20.33;8.68;;;16.50;99.90;;;;;;5016400;28;25054;-72
2021/08/31 08:01:32;;;;;;;22.48;8.75;;;16.60;99.90;;;;;;5016529;28;25075;-72
2021/08/31 08:03:59;;;;;;;18.63;7.38;;;16.80;99.90;;;;;;5025937;28;25064;-72
2021/08/31 08:06:25;;;;;;;19.10;7.22;;;17.00;99.90;;;;;;5029294;28;25079;-71
2021/08/31 08:08:56;;;;;;;25.98;7.95;;;17.00;99.90;;;;;;5030496;28;25080;-74
2021/08/31 08:11:25;;;;;;;22.20;7.13;;;17.10;99.90;;;;;;5016748;28;25056;-72
2021/08/31 08:13:52;;;;;;;17.33;7.22;;;17.20;99.90;;;;;;5033961;28;25064;-73
2021/08/31 08:16:19;;;;;;;24.23;8.02;;;17.30;99.90;;;;;;5031403;28;25095;-72
2021/08/31 08:18:46;;;;;;;19.45;8.52;;;17.30;99.90;;;;;;5014640;28;25065;-72
2021/08/31 08:21:13;;;;;;;23.77;8.20;;;17.30;99.90;;;;;;5033055;28;25069;-72
2021/08/31 08:23:39;;;;;;;20.88;7.57;;;17.40;99.90;;;;;;5015511;28;25055;-70
2021/08/31 08:26:06;;;;;;;22.98;7.85;;;17.50;99.90;;;;;;5014907;28;25130;-73
2021/08/31 08:28:32;;;;;;;21.00;7.15;;;17.60;99.90;;;;;;5026840;28;25070;-69
2021/08/31 08:30:58;;;;;;;23.77;7.78;;;17.60;99.90;;;;;;5033084;28;25124;-72
2021/08/31 08:33:24;;;;;;;16.35;6.88;;;17.50;99.90;;;;;;5016035;28;25051;-72
2021/08/31 08:35:50;;;;;;;28.48;8.07;;;17.50;99.90;;;;;;5017168;28;25058;-73
2021/08/31 08:38:17;;;;;;;21.20;7.18;;;17.40;99.90;;;;;;5032513;28;25076;-73
2021/08/31 08:40:45;;;;;;;21.83;7.32;;;17.50;99.90;;;;;;5033823;28;25057;-73
2021/08/31 08:43:13;;;;;;;21.10;7.88;;;17.60;99.90;;;;;;5023638;28;25095;-70
2021/08/31 08:45:44;;;;;;;21.65;8.38;;;17.70;99.90;;;;;;5002894;28;25076;-72
2021/08/31 08:48:20;;;;;;;21.90;7.22;;;17.60;99.90;;;;;;5017388;28;25090;-75
2021/08/31 08:50:46;;;;;;;24.33;8.18;;;17.60;99.90;;;;;;5001042;28;25052;-73
2021/08/31 08:53:12;;;;;;;16.98;7.25;;;17.70;99.90;;;;;;5002160;28;25138;-72
2021/08/31 08:55:39;;;;;;;18.80;6.25;;;18.00;99.90;;;;;;5021891;28;25059;-72
2021/08/31 08:58:04;;;;;;;24.40;7.65;;;18.20;99.90;;;;;;5007941;28;25071;-73
2021/08/31 09:00:50;;;;;;;15.07;7.55;;;18.00;99.90;;;;;;5030001;28;25096;-73
2021/08/31 09:03:24;;;;;;;21.83;7.35;;;17.70;99.90;;;;;;5031540;28;25059;-72
2021/08/31 09:06:20;;;;;;;19.25;7.00;;;17.60;99.90;;;;;;5030619;28;25070;-70
2021/08/31 09:09:00;;;;;;;16.90;7.10;;;17.70;99.90;;;;;;4999296;28;25051;-70
2021/08/31 09:11:35;;;;;;;23.88;8.43;;;18.20;99.90;;;;;;5011677;28;25075;-71
2021/08/31 09:14:27;;;;;;;23.05;8.02;;;18.30;99.90;;;;;;5012563;28;25073;-72
2021/08/31 09:16:56;;;;;;;20.33;7.50;;;18.50;99.90;;;;;;5004824;28;25083;-72
2021/08/31 09:19:34;;;;;;;23.48;8.27;;;18.20;99.90;;;;;;5011772;28;25057;-73
2021/08/31 09:22:17;;;;;;;16.70;7.22;;;17.90;99.90;;;;;;4994739;28;25073;-70
2021/08/31 09:24:57;;;;;;;;;;;17.80;99.90;;;;;;5011035;28;25130;-70
2021/08/31 09:27:48;;;;;;;20.92;9.15;;;17.80;99.90;;;;;;5010485;28;24112;-73
2021/08/31 09:30:15;;;;;;;22.98;9.55;;;17.90;99.90;;;;;;4999768;28;25049;-74
2021/08/31 09:33:03;;;;;;;22.00;8.50;;;17.90;99.90;;;;;;4992863;28;25146;-74
2021/08/31 09:35:33;;;;;;;18.00;8.15;;;18.00;99.90;;;;;;5011997;28;25158;-72
2021/08/31 09:38:04;;;;;;;20.13;8.35;;;18.00;99.90;;;;;;4991459;28;25083;-73
2021/08/31 09:40:31;;;;;;;24.98;8.88;;;18.20;99.90;;;;;;5010640;28;25068;-73
2021/08/31 09:43:04;;;;;;;17.85;7.82;;;18.60;99.90;;;;;;5009592;28;25067;-71
2021/08/31 09:45:34;;;;;;;21.85;7.45;;;18.50;99.90;;;;;;5010086;28;25064;-72
2021/08/31 09:48:02;;;;;;;20.67;8.35;;;18.50;99.90;;;;;;4976965;28;25055;-72
2021/08/31 09:50:43;;;;;;;15.10;7.47;;;18.40;99.90;;;;;;5010244;28;25086;-75
2021/08/31 09:53:20;;;;;;;14.75;7.65;;;18.20;99.90;;;;;;5009464;28;25145;-71
2021/08/31 09:55:48;;;;;;;19.85;7.30;;;18.20;99.90;;;;;;5008282;28;25068;-73
2021/08/31 09:58:23;;;;;;;17.55;8.85;;;18.40;99.90;;;;;;4992434;28;25051;-72
2021/08/31 10:00:50;;;;;;;19.00;7.38;;;18.70;99.90;;;;;;5008435;28;25088;-72
2021/08/31 10:03:16;;;;;;;19.48;8.48;;;19.00;99.90;;;;;;5010018;28;25054;-71
2021/08/31 10:05:43;;;;;;;22.05;8.55;;;18.90;99.90;;;;;;5010860;28;25066;-73
2021/08/31 10:08:10;;;;;;;21.13;8.57;;;18.80;99.90;;;;;;5011241;28;25070;-72
2021/08/31 10:10:38;;;;;;;21.38;8.45;;;18.80;99.90;;;;;;5009552;28;25070;-72
2021/08/31 10:13:08;;;;;;;20.85;8.68;;;18.60;99.90;;;;;;5010732;28;25134;-72
2021/08/31 10:15:39;;;;;;;22.40;9.20;;;18.50;99.90;;;;;;4992516;28;25118;-73
2021/08/31 10:18:07;;;;;;;23.42;8.20;;;18.60;99.90;;;;;;5009751;28;25059;-72
2021/08/31 10:20:34;;;;;;;28.48;9.00;;;18.60;99.90;;;;;;5009266;28;25088;-72
2021/08/31 10:23:01;;;;;;;21.25;8.68;;;18.60;99.90;;;;;;5008546;28;25097;-72
2021/08/31 10:25:28;;;;;;;19.88;8.20;;;18.80;99.90;;;;;;4992287;28;25054;-70
2021/08/31 10:27:55;;;;;;;20.30;7.88;;;18.80;99.90;;;;;;5010264;28;25100;-73
2021/08/31 10:30:21;;;;;;;19.27;8.25;;;19.10;99.90;;;;;;5010310;28;25052;-72
2021/08/31 10:32:57;;;;;;;18.08;7.90;;;19.10;99.90;;;;;;4992099;28;25048;-70
2021/08/31 10:35:32;;;;;;;20.95;8.30;;;18.80;99.90;;;;;;4992311;28;25097;-73
2021/08/31 10:38:02;;;;;;;15.80;7.97;;;18.80;99.90;;;;;;5008940;28;25121;-72
2021/08/31 10:40:43;;;;;;;16.08;7.70;;;18.90;99.90;;;;;;5010242;28;25070;-72
2021/08/31 10:43:20;;;;;;;16.27;8.05;;;19.00;99.90;;;;;;5009550;28;25075;-69
2021/08/31 10:45:54;;;;;;;13.27;7.13;;;19.20;99.90;;;;;;5011090;28;25139;-73
2021/08/31 10:48:23;;;;;;;20.15;8.30;;;19.30;99.90;;;;;;4991831;28;25054;-72
2021/08/31 10:50:51;;;;;;;20.33;7.78;;;19.20;99.90;;;;;;5011457;28;25055;-73
2021/08/31 10:53:40;;;;;;;16.42;7.82;;;19.00;99.90;;;;;;5012672;28;25068;-73
2021/08/31 10:56:21;;;;;;;19.80;7.88;;;18.90;99.90;;;;;;5011079;28;25061;-72
2021/08/31 10:58:57;;;;;;;21.33;8.43;;;19.20;99.90;;;;;;5011881;28;25072;-72
2021/08/31 11:01:38;;;;;;;16.88;7.70;;;19.40;99.90;;;;;;5010351;28;25077;-73
2021/08/31 11:04:31;;;;;;;21.50;8.30;;;19.60;99.90;;;;;;5009126;28;25070;-73
2021/08/31 11:07:03;;;;;;;18.08;8.98;;;19.10;99.90;;;;;;5014698;28;25062;-73
2021/08/31 11:09:31;;;;;;;21.48;8.30;;;18.90;99.90;;;;;;5013280;28;25059;-72
2021/08/31 11:12:06;;;;;;;23.88;9.23;;;19.10;99.90;;;;;;5006950;28;25108;-71
2021/08/31 11:14:51;;;;;;;23.38;8.27;;;19.30;99.90;;;;;;5014196;28;25061;-72
2021/08/31 11:17:31;;;;;;;19.27;7.47;;;19.20;99.90;;;;;;5017272;28;25055;-73
2021/08/31 11:20:15;;;;;;;26.73;8.43;;;19.30;99.90;;;;;;5019308;28;25195;-72
2021/08/31 11:22:41;;;;;;;20.73;8.30;;;19.70;99.90;;;;;;5019457;28;25057;-73
2021/08/31 11:25:10;;;;;;;18.00;7.68;;;19.80;99.90;;;;;;5016978;28;25075;-72
2021/08/31 11:27:58;;;;;;;20.20;8.35;;;19.90;99.90;;;;;;5016145;28;25067;-74
2021/08/31 11:30:24;;;;;;;21.80;8.10;;;20.20;99.90;;;;;;5000315;28;25050;-72
2021/08/31 11:33:20;;;;;;;22.60;7.80;;;20.40;99.90;;;;;;5018438;28;25055;-73
2021/08/31 11:35:50;;;;;;;15.70;8.45;;;20.40;99.90;;;;;;5013605;28;25055;-72
2021/08/31 11:38:26;;;;;;;13.25;7.18;;;20.50;99.90;;;;;;5014490;28;25064;-72
2021/08/31 11:40:52;;;;;;;23.02;8.27;;;20.50;99.90;;;;;;5015194;28;25070;-72
2021/08/31 11:43:17;;;;;;;12.80;7.45;;;20.50;99.90;;;;;;5014263;28;25067;-72
2021/08/31 11:45:43;;;;;;;16.80;8.00;;;20.50;99.90;;;;;;5017085;28;25067;-72
2021/08/31 11:48:09;;;;;;;19.35;7.95;;;20.40;99.90;;;;;;5014797;28;25059;-74
2021/08/31 11:50:37;;;;;;;16.27;7.97;;;20.30;99.90;;;;;;5013931;28;25137;-72
2021/08/31 11:53:16;;;;;;;16.13;7.65;;;20.30;99.90;;;;;;4996157;28;25060;-74
2021/08/31 11:55:42;;;;;;;20.85;7.40;;;20.50;99.90;;;;;;5013663;28;25075;-72
2021/08/31 11:58:07;;;;;;;18.80;7.85;;;20.80;99.90;;;;;;5016415;28;25066;-72
2021/08/31 12:00:45;;;;;;;22.27;8.00;;;21.10;99.90;;;;;;5019374;28;25068;-72
2021/08/31 12:03:38;;;;;;;20.90;7.78;;;21.20;99.90;;;;;;5033153;28;25044;-72
2021/08/31 12:06:07;;;;;;;18.33;7.43;;;21.10;99.90;;;;;;5035205;28;25074;-73
2021/08/31 12:08:40;;;;;;;12.55;6.32;;;20.80;99.90;;;;;;5036790;28;25050;-73
2021/08/31 12:11:06;;;;;;;19.02;6.25;;;20.30;99.90;;;;;;5026367;28;25041;-72
2021/08/31 12:13:33;;;;;;;15.35;5.78;;;20.30;99.90;;;;;;5021352;28;25149;-72
2021/08/31 12:16:00;;;;;;;14.95;5.97;;;20.60;99.90;;;;;;5014707;28;25134;-72
2021/08/31 12:18:29;;;;;;;19.27;6.63;;;21.10;99.90;;;;;;4997801;28;25071;-71
2021/08/31 12:21:18;;;;;;;19.00;6.50;;;21.20;99.90;;;;;;5013379;28;25045;-72
2021/08/31 12:23:46;;;;;;;12.43;7.00;;;21.40;99.90;;;;;;4997145;28;25140;-73
2021/08/31 12:26:35;;;;;;;13.30;6.15;;;21.10;99.90;;;;;;4996429;28;25167;-75
2021/08/31 12:29:14;;;;;;;16.83;6.63;;;21.10;99.90;;;;;;5016363;28;25078;-71
2021/08/31 12:31:40;;;;;;;13.52;7.28;;;21.00;99.90;;;;;;5013746;28;25052;-74
2021/08/31 12:34:27;;;;;;;10.50;5.85;;;21.00;99.90;;;;;;5014725;28;25091;-74
2021/08/31 12:36:53;;;;;;;13.10;6.30;;;20.60;99.90;;;;;;5012517;28;25060;-71